Time;durP1;ratioP1;P1;durP2;ratioP2;P2;SDS_P1;SDS_P2;PMS_P1;PMS_P2;Temp;Humidity;BMP_temperature;BMP_pressure;BME280_temperature;BME280_humidity;BME280_pressure;Samples;Min_cycle;Max_cycle;Signal;HPM_P1;HPM_P2
2021/05/02 00:01:57;;;;;;;4.97;2.90;;;17.20;75.90;;;;;;5137044;27;20089;-44
2021/05/02 00:04:23;;;;;;;6.40;3.25;;;17.10;75.90;;;;;;5118555;28;20089;-41
2021/05/02 00:06:49;;;;;;;6.10;2.78;;;17.10;76.60;;;;;;5136502;27;20035;-40
2021/05/02 00:09:15;;;;;;;10.27;3.65;;;17.10;76.80;;;;;;5136679;28;20027;-46
2021/05/02 00:11:40;;;;;;;3.47;2.35;;;17.00;77.60;;;;;;5137058;27;20028;-40
2021/05/02 00:14:06;;;;;;;4.38;2.67;;;17.00;78.10;;;;;;5136630;28;20456;-42
2021/05/02 00:16:35;;;;;;;4.93;2.85;;;17.00;78.50;;;;;;5136882;28;20023;-41
2021/05/02 00:19:01;;;;;;;7.35;2.97;;;17.00;78.90;;;;;;5136346;27;20027;-46
2021/05/02 00:21:26;;;;;;;7.28;4.60;;;16.90;79.10;;;;;;5136859;28;20102;-41
2021/05/02 00:23:52;;;;;;;14.02;10.50;;;16.90;79.30;;;;;;5136648;27;20338;-41
2021/05/02 00:26:18;;;;;;;11.20;6.72;;;16.90;79.80;;;;;;5136888;28;20035;-41
2021/05/02 00:28:46;;;;;;;11.65;6.20;;;16.90;80.20;;;;;;5136325;27;20031;-41
2021/05/02 00:31:12;;;;;;;6.28;4.63;;;16.90;80.80;;;;;;5136712;28;20066;-41
2021/05/02 00:33:41;;;;;;;9.50;6.05;;;16.80;80.90;;;;;;5118203;28;20035;-40
2021/05/02 00:36:07;;;;;;;7.50;4.65;;;16.80;81.30;;;;;;5136176;28;20048;-46
2021/05/02 00:38:38;;;;;;;6.03;4.50;;;16.80;81.20;;;;;;5136291;27;20330;-44
2021/05/02 00:41:13;;;;;;;8.93;5.18;;;16.80;81.40;;;;;;5136495;28;20059;-46
2021/05/02 00:43:44;;;;;;;5.50;3.60;;;16.80;81.90;;;;;;5138308;27;20418;-44
2021/05/02 00:46:16;;;;;;;7.57;4.00;;;16.70;81.80;;;;;;5140454;27;20058;-44
2021/05/02 00:48:52;;;;;;;4.18;3.00;;;16.70;82.00;;;;;;5139942;27;20027;-45
2021/05/02 00:51:20;;;;;;;5.60;3.58;;;16.70;82.00;;;;;;5140073;27;20134;-40
2021/05/02 00:54:02;;;;;;;6.97;3.80;;;16.60;81.90;;;;;;5139789;27;20061;-40
2021/05/02 00:56:35;;;;;;;7.88;3.60;;;16.60;82.20;;;;;;5140074;27;20031;-48
2021/05/02 00:59:07;;;;;;;9.73;4.28;;;16.50;82.50;;;;;;5139874;27;20407;-41
2021/05/02 01:01:44;;;;;;;11.20;4.63;;;16.50;82.90;;;;;;5140182;27;20350;-44
2021/05/02 01:04:11;;;;;;;12.02;5.43;;;16.50;82.80;;;;;;5139716;27;20051;-40
2021/05/02 01:06:40;;;;;;;17.23;6.60;;;16.50;82.90;;;;;;5140023;27;20118;-41
2021/05/02 01:09:06;;;;;;;21.20;6.13;;;16.50;83.40;;;;;;5139769;27;20418;-41
2021/05/02 01:11:35;;;;;;;13.00;5.53;;;16.40;83.20;;;;;;5139893;27;20027;-45
2021/05/02 01:14:02;;;;;;;14.75;6.43;;;16.40;83.20;;;;;;5139377;27;20043;-44
2021/05/02 01:16:33;;;;;;;12.30;5.68;;;16.40;83.40;;;;;;5139618;27;20039;-40
2021/05/02 01:19:04;;;;;;;12.95;5.70;;;16.40;83.30;;;;;;5139673;27;20102;-42
2021/05/02 01:21:34;;;;;;;11.80;5.50;;;16.40;83.90;;;;;;5139700;27;20028;-41
2021/05/02 01:24:00;;;;;;;17.88;6.93;;;16.30;83.20;;;;;;5139342;27;20319;-47
2021/05/02 01:26:29;;;;;;;15.65;6.88;;;16.30;83.50;;;;;;5139286;27;20061;-45
2021/05/02 01:28:57;;;;;;;12.93;6.95;;;16.30;83.50;;;;;;5139010;27;20423;-45
2021/05/02 01:31:23;;;;;;;21.00;7.78;;;16.30;83.50;;;;;;5139521;27;20070;-43
2021/05/02 01:33:50;;;;;;;14.00;7.18;;;16.20;83.60;;;;;;5138899;27;20027;-44
2021/05/02 01:36:16;;;;;;;16.73;6.97;;;16.20;83.50;;;;;;5138653;27;20100;-40
2021/05/02 01:38:42;;;;;;;15.88;7.85;;;16.20;83.60;;;;;;5138903;27;20023;-40
2021/05/02 01:41:09;;;;;;;14.30;7.35;;;16.20;83.80;;;;;;5139084;27;20067;-46
2021/05/02 01:43:34;;;;;;;18.60;7.97;;;16.20;83.90;;;;;;5138965;27;20106;-45
2021/05/02 01:46:02;;;;;;;16.08;7.18;;;16.10;84.10;;;;;;5139071;27;20462;-40
2021/05/02 01:48:29;;;;;;;18.67;8.73;;;16.20;84.20;;;;;;5120324;27;20024;-46
2021/05/02 01:51:02;;;;;;;15.18;7.88;;;16.20;84.60;;;;;;5138924;27;20067;-41
2021/05/02 01:53:29;;;;;;;19.48;8.32;;;16.10;84.30;;;;;;5138671;27;20446;-48
2021/05/02 01:55:55;;;;;;;16.98;7.05;;;16.10;84.50;;;;;;5138953;27;20132;-43
2021/05/02 01:58:22;;;;;;;15.77;7.43;;;16.10;84.40;;;;;;5138643;27;20164;-40
2021/05/02 02:00:56;;;;;;;16.25;8.05;;;16.10;84.50;;;;;;5138937;27;20107;-44
2021/05/02 02:03:23;;;;;;;15.20;6.82;;;16.10;84.60;;;;;;5138648;27;20027;-40
2021/05/02 02:05:49;;;;;;;13.48;7.45;;;16.00;84.60;;;;;;5138623;27;20023;-40
2021/05/02 02:08:16;;;;;;;12.57;7.28;;;16.10;84.70;;;;;;5138351;27;20056;-40
2021/05/02 02:10:43;;;;;;;10.77;6.88;;;16.10;84.50;;;;;;5138507;27;20050;-40
2021/05/02 02:13:11;;;;;;;13.43;7.18;;;16.00;84.50;;;;;;5138494;27;20026;-40
2021/05/02 02:15:38;;;;;;;13.13;7.63;;;16.00;84.70;;;;;;5138534;27;20090;-41
2021/05/02 02:18:05;;;;;;;10.32;6.78;;;16.00;84.70;;;;;;5138055;27;20023;-40
2021/05/02 02:20:43;;;;;;;12.68;6.90;;;16.00;84.70;;;;;;5138524;27;20410;-40
2021/05/02 02:23:23;;;;;;;12.50;6.97;;;16.00;84.80;;;;;;5138450;27;20031;-45
2021/05/02 02:25:49;;;;;;;11.15;6.32;;;16.00;84.80;;;;;;5138484;27;20430;-44
2021/05/02 02:28:18;;;;;;;14.20;7.10;;;16.00;84.90;;;;;;5138260;27;20042;-45
2021/05/02 02:30:46;;;;;;;11.25;6.05;;;16.00;85.10;;;;;;5138426;27;20038;-45
2021/05/02 02:33:13;;;;;;;7.90;5.22;;;16.00;85.10;;;;;;5137683;27;20031;-40
2021/05/02 02:35:50;;;;;;;9.40;5.57;;;16.00;84.90;;;;;;5137645;27;20447;-40
2021/05/02 02:38:19;;;;;;;8.13;5.05;;;16.00;84.90;;;;;;5137862;27;20410;-40
2021/05/02 02:40:48;;;;;;;9.25;6.18;;;16.00;85.10;;;;;;5137964;27;20035;-43
2021/05/02 02:43:23;;;;;;;11.13;5.32;;;16.00;85.00;;;;;;5137376;27;20023;-45
2021/05/02 02:45:53;;;;;;;8.98;5.07;;;16.00;84.90;;;;;;5137823;27;20438;-40
2021/05/02 02:48:25;;;;;;;6.10;4.00;;;16.00;84.90;;;;;;5137476;27;20051;-40
2021/05/02 02:50:55;;;;;;;7.18;4.90;;;16.00;85.00;;;;;;5137636;27;20301;-40
2021/05/02 02:53:21;;;;;;;6.57;4.90;;;16.00;85.10;;;;;;5137694;27;20047;-45
2021/05/02 02:56:07;;;;;;;9.25;5.72;;;16.00;85.30;;;;;;5137449;27;20032;-44
2021/05/02 02:58:55;;;;;;;8.25;5.50;;;16.00;85.40;;;;;;5137756;27;20026;-41
2021/05/02 03:01:21;;;;;;;12.32;5.70;;;16.00;85.50;;;;;;5137798;27;20399;-41
2021/05/02 03:03:49;;;;;;;8.70;5.35;;;16.00;85.40;;;;;;5137388;27;20031;-40
2021/05/02 03:06:18;;;;;;;9.38;6.75;;;16.00;85.60;;;;;;5136556;27;20027;-40
2021/05/02 03:08:47;;;;;;;10.55;6.07;;;16.10;85.60;;;;;;5137487;27;20288;-40
2021/05/02 03:11:15;;;;;;;11.25;7.40;;;16.10;85.90;;;;;;5137474;27;20401;-45
2021/05/02 03:13:44;;;;;;;12.13;7.80;;;16.10;86.00;;;;;;5137123;27;20031;-40
2021/05/02 03:16:10;;;;;;;10.77;7.55;;;16.20;85.90;;;;;;5137519;27;20031;-46
2021/05/02 03:18:52;;;;;;;10.80;7.28;;;16.20;85.80;;;;;;5137043;27;20019;-46
2021/05/02 03:21:27;;;;;;;11.50;7.78;;;16.20;85.70;;;;;;5137368;27;20034;-40
2021/05/02 03:23:56;;;;;;;15.30;9.35;;;16.30;85.70;;;;;;5136968;27;20031;-40
2021/05/02 03:26:24;;;;;;;14.40;10.60;;;16.30;85.80;;;;;;5136868;27;20106;-44
2021/05/02 03:28:54;;;;;;;14.93;10.60;;;16.30;85.70;;;;;;5137137;27;20106;-49
2021/05/02 03:31:32;;;;;;;14.50;11.10;;;16.40;85.70;;;;;;5137034;27;20449;-41
2021/05/02 03:34:04;;;;;;;18.73;12.23;;;16.40;85.50;;;;;;5137134;27;20043;-45
2021/05/02 03:36:35;;;;;;;17.50;13.52;;;16.40;85.60;;;;;;5136650;27;20135;-44
2021/05/02 03:39:03;;;;;;;21.25;14.90;;;16.40;85.50;;;;;;5136697;27;20411;-44
2021/05/02 03:41:33;;;;;;;18.67;13.95;;;16.40;85.40;;;;;;5137253;28;20049;-40
2021/05/02 03:43:59;;;;;;;21.42;15.93;;;16.50;85.60;;;;;;5136955;27;20352;-45
2021/05/02 03:46:25;;;;;;;19.52;14.98;;;16.40;85.60;;;;;;5136659;28;20038;-40
2021/05/02 03:49:05;;;;;;;22.17;15.50;;;16.50;85.60;;;;;;5136982;27;20027;-44
2021/05/02 03:51:33;;;;;;;20.08;16.05;;;16.50;85.50;;;;;;5137175;28;20035;-44
2021/05/02 03:53:59;;;;;;;23.67;16.73;;;16.50;85.40;;;;;;5136924;27;20491;-45
2021/05/02 03:56:54;;;;;;;21.98;16.95;;;16.50;85.30;;;;;;5136859;28;20032;-44
2021/05/02 03:59:22;;;;;;;24.63;17.85;;;16.60;85.10;;;;;;5115087;28;20027;-40
2021/05/02 04:01:51;;;;;;;28.35;17.98;;;16.60;85.50;;;;;;5136528;27;20035;-45
2021/05/02 04:04:19;;;;;;;22.33;18.13;;;16.60;85.50;;;;;;5136922;28;20023;-44
2021/05/02 04:06:45;;;;;;;22.95;16.15;;;16.60;85.30;;;;;;5136930;27;20057;-46
2021/05/02 04:09:13;;;;;;;26.10;17.73;;;16.60;85.30;;;;;;5136464;28;20084;-40
2021/05/02 04:11:39;;;;;;;24.17;14.63;;;16.70;85.40;;;;;;5136471;28;20035;-40
2021/05/02 04:14:07;;;;;;;27.70;15.95;;;16.60;85.10;;;;;;5136696;27;20366;-40
2021/05/02 04:16:32;;;;;;;31.70;16.27;;;16.70;85.20;;;;;;5136721;28;20117;-40
2021/05/02 04:18:59;;;;;;;27.67;15.68;;;16.70;85.30;;;;;;5139054;27;20044;-40
2021/05/02 04:21:25;;;;;;;36.47;15.18;;;16.70;85.40;;;;;;5140601;27;20038;-47
2021/05/02 04:23:51;;;;;;;34.28;15.40;;;16.80;85.30;;;;;;5140415;27;20023;-40
2021/05/02 04:26:17;;;;;;;35.47;14.98;;;16.80;85.30;;;;;;5140615;27;20114;-40
2021/05/02 04:28:42;;;;;;;37.72;16.73;;;16.90;85.10;;;;;;5140267;27;20319;-46
2021/05/02 04:31:08;;;;;;;44.83;18.45;;;16.90;84.90;;;;;;5140632;27;20054;-40
2021/05/02 04:33:34;;;;;;;41.05;16.55;;;16.90;84.70;;;;;;5140185;27;20432;-46
2021/05/02 04:36:00;;;;;;;46.50;17.83;;;16.90;84.60;;;;;;5139752;27;20053;-40
2021/05/02 04:38:25;;;;;;;43.55;16.77;;;17.00;84.50;;;;;;5139996;27;20028;-45
2021/05/02 04:40:51;;;;;;;40.58;17.02;;;17.00;84.40;;;;;;5140381;27;20110;-40
2021/05/02 04:43:17;;;;;;;40.47;17.70;;;17.00;84.20;;;;;;5139955;27;20266;-44
2021/05/02 04:45:42;;;;;;;33.58;20.35;;;17.10;84.10;;;;;;5140316;27;20050;-40
2021/05/02 04:48:08;;;;;;;36.05;21.58;;;17.10;83.90;;;;;;5140129;27;20027;-45
2021/05/02 04:50:34;;;;;;;35.88;19.90;;;17.10;83.80;;;;;;5140074;27;20059;-41
2021/05/02 04:53:00;;;;;;;34.50;21.05;;;17.20;83.80;;;;;;5139640;27;20031;-40
2021/05/02 04:55:26;;;;;;;38.85;24.30;;;17.20;83.60;;;;;;5140013;27;20039;-40
2021/05/02 04:57:53;;;;;;;29.02;20.50;;;17.20;83.30;;;;;;5139914;27;20380;-40
2021/05/02 05:00:20;;;;;;;27.73;18.77;;;17.20;83.10;;;;;;5139836;27;20112;-41
2021/05/02 05:02:46;;;;;;;32.58;21.35;;;17.20;83.10;;;;;;5139656;27;20015;-41
2021/05/02 05:05:12;;;;;;;26.38;20.02;;;17.20;83.40;;;;;;5139810;27;20039;-41
2021/05/02 05:07:37;;;;;;;26.30;20.08;;;17.30;83.90;;;;;;5139652;27;20087;-40
2021/05/02 05:10:04;;;;;;;27.23;20.95;;;17.40;83.80;;;;;;5139375;27;20059;-45
2021/05/02 05:12:29;;;;;;;26.05;20.58;;;17.40;83.80;;;;;;5139511;27;20027;-41
2021/05/02 05:14:55;;;;;;;24.90;17.52;;;17.50;83.50;;;;;;5139500;27;20054;-41
2021/05/02 05:17:21;;;;;;;29.90;19.58;;;17.60;83.30;;;;;;5139176;27;20524;-44
2021/05/02 05:19:46;;;;;;;23.67;17.85;;;17.60;83.20;;;;;;5139166;27;20054;-44
2021/05/02 05:22:12;;;;;;;25.02;18.05;;;17.70;83.30;;;;;;5139162;27;20040;-40
2021/05/02 05:24:38;;;;;;;22.00;17.15;;;17.80;83.00;;;;;;5138889;27;20027;-46
2021/05/02 05:27:04;;;;;;;23.42;17.95;;;18.00;82.40;;;;;;5139153;27;20031;-46
2021/05/02 05:29:32;;;;;;;23.70;17.60;;;18.00;82.00;;;;;;5138436;27;20054;-47
2021/05/02 05:31:57;;;;;;;23.50;15.68;;;18.20;81.10;;;;;;5139135;27;20046;-40
2021/05/02 05:34:23;;;;;;;24.50;17.55;;;18.20;80.70;;;;;;5139117;27;20023;-46
2021/05/02 05:36:49;;;;;;;22.05;16.60;;;18.30;80.60;;;;;;5138481;27;20427;-41
2021/05/02 05:39:14;;;;;;;19.65;15.15;;;18.40;80.30;;;;;;5138841;27;20027;-41
2021/05/02 05:41:40;;;;;;;25.23;15.52;;;18.50;79.60;;;;;;5139098;27;20030;-44
2021/05/02 05:44:06;;;;;;;22.23;14.57;;;18.60;79.40;;;;;;5138744;27;20341;-45
2021/05/02 05:46:31;;;;;;;24.08;14.85;;;18.70;78.40;;;;;;5120482;27;20031;-41
2021/05/02 05:48:57;;;;;;;23.77;14.93;;;18.80;78.40;;;;;;5138755;27;20375;-41
2021/05/02 05:51:23;;;;;;;21.70;15.32;;;18.80;78.00;;;;;;5138850;27;20168;-41
2021/05/02 05:53:48;;;;;;;21.55;14.85;;;18.90;77.30;;;;;;5138305;27;20027;-41
2021/05/02 05:56:14;;;;;;;21.13;14.70;;;18.90;77.60;;;;;;5138147;27;20245;-46
2021/05/02 05:58:39;;;;;;;19.52;15.35;;;19.00;77.00;;;;;;5138215;27;20090;-44
2021/05/02 06:01:05;;;;;;;22.42;15.60;;;19.10;77.30;;;;;;5138590;27;20527;-41
2021/05/02 06:03:31;;;;;;;22.38;15.27;;;19.20;77.00;;;;;;5138195;27;20132;-42
2021/05/02 06:05:56;;;;;;;23.83;14.73;;;19.20;77.00;;;;;;5138560;27;20027;-41
2021/05/02 06:08:22;;;;;;;20.92;13.98;;;19.30;76.80;;;;;;5138130;27;20051;-42
2021/05/02 06:10:48;;;;;;;20.98;14.15;;;19.40;76.00;;;;;;5138453;27;20027;-41
2021/05/02 06:13:18;;;;;;;26.00;14.43;;;19.50;75.90;;;;;;5138241;27;20031;-42
2021/05/02 06:15:44;;;;;;;18.23;13.57;;;19.50;75.40;;;;;;5138340;27;20320;-44
2021/05/02 06:18:09;;;;;;;19.35;13.40;;;19.60;74.80;;;;;;5138074;27;20031;-42
2021/05/02 06:20:35;;;;;;;22.45;14.48;;;19.70;74.70;;;;;;5138011;27;20379;-46
2021/05/02 06:23:00;;;;;;;16.83;13.00;;;19.80;74.80;;;;;;5137802;27;20110;-44
2021/05/02 06:25:26;;;;;;;21.80;14.60;;;19.90;73.50;;;;;;5137979;27;20027;-42
2021/05/02 06:27:52;;;;;;;19.02;12.55;;;20.00;73.10;;;;;;5137742;27;20027;-41
2021/05/02 06:30:18;;;;;;;17.00;12.68;;;20.10;72.40;;;;;;5137861;27;20023;-42
2021/05/02 06:32:44;;;;;;;18.25;12.60;;;20.20;71.90;;;;;;5137571;27;20118;-45
2021/05/02 06:35:10;;;;;;;15.48;11.68;;;20.30;71.50;;;;;;5137811;27;20134;-42
2021/05/02 06:37:36;;;;;;;14.25;11.38;;;20.40;71.00;;;;;;5137407;27;20031;-45
2021/05/02 06:40:02;;;;;;;14.27;11.00;;;20.50;70.50;;;;;;5137688;27;20335;-45
2021/05/02 06:42:28;;;;;;;17.88;11.40;;;20.60;69.80;;;;;;5137059;27;20023;-45
2021/05/02 06:44:54;;;;;;;19.10;10.85;;;20.60;68.60;;;;;;5137277;27;20384;-44
2021/05/02 06:47:20;;;;;;;21.83;13.40;;;20.70;68.30;;;;;;5137697;27;20438;-42
2021/05/02 06:49:46;;;;;;;21.83;12.40;;;20.80;67.60;;;;;;5137492;27;20027;-45
2021/05/02 06:52:13;;;;;;;19.35;11.77;;;20.80;68.00;;;;;;5118990;27;20030;-42
2021/05/02 06:54:39;;;;;;;16.23;11.75;;;20.80;67.20;;;;;;5137346;27;20110;-42
2021/05/02 06:57:04;;;;;;;16.58;10.75;;;20.80;67.30;;;;;;5137207;27;20106;-41
2021/05/02 06:59:31;;;;;;;18.23;10.25;;;20.90;66.60;;;;;;5136934;27;20016;-44
2021/05/02 07:01:57;;;;;;;15.85;9.88;;;20.90;66.00;;;;;;5137451;27;20399;-47
2021/05/02 07:04:22;;;;;;;16.33;9.68;;;20.90;65.80;;;;;;5137033;27;20080;-42
2021/05/02 07:06:48;;;;;;;15.23;10.07;;;20.90;66.10;;;;;;5137369;27;20031;-42
2021/05/02 07:09:14;;;;;;;15.55;9.90;;;20.90;66.30;;;;;;5136733;27;20030;-42
2021/05/02 07:11:39;;;;;;;18.65;10.82;;;21.00;66.40;;;;;;5137419;27;20081;-49
2021/05/02 07:14:05;;;;;;;14.48;10.73;;;21.00;66.40;;;;;;5137227;27;20314;-46
2021/05/02 07:16:31;;;;;;;16.65;11.15;;;21.10;66.70;;;;;;5136817;27;20042;-45
2021/05/02 07:18:56;;;;;;;16.52;10.20;;;21.10;66.70;;;;;;5137298;27;20028;-46
2021/05/02 07:21:22;;;;;;;18.05;10.60;;;21.10;66.20;;;;;;5136830;27;20034;-43
2021/05/02 07:23:52;;;;;;;16.00;10.23;;;21.20;65.80;;;;;;5118694;27;20024;-43
2021/05/02 07:26:20;;;;;;;16.35;10.40;;;21.20;65.90;;;;;;5136726;27;20027;-47
2021/05/02 07:28:47;;;;;;;18.30;10.77;;;21.20;65.80;;;;;;5137087;27;20126;-49
2021/05/02 07:31:12;;;;;;;19.23;10.13;;;21.20;66.10;;;;;;5136674;27;20031;-47
2021/05/02 07:33:39;;;;;;;16.08;10.35;;;21.20;65.90;;;;;;5136635;27;20325;-46
2021/05/02 07:36:05;;;;;;;19.45;10.75;;;21.30;66.30;;;;;;5136381;27;20058;-44
2021/05/02 07:38:31;;;;;;;20.17;11.10;;;21.30;66.20;;;;;;5136925;27;20019;-46
2021/05/02 07:40:57;;;;;;;17.35;9.88;;;21.40;65.60;;;;;;5136676;28;20377;-43
2021/05/02 07:43:24;;;;;;;20.90;12.45;;;21.40;65.70;;;;;;5136562;27;20030;-49
2021/05/02 07:45:50;;;;;;;17.80;10.15;;;21.40;66.10;;;;;;5136788;28;20036;-42
2021/05/02 07:48:16;;;;;;;16.52;10.18;;;21.40;65.70;;;;;;5136408;27;20429;-42
2021/05/02 07:50:42;;;;;;;15.68;9.30;;;21.50;65.60;;;;;;5136804;28;20411;-42
2021/05/02 07:53:08;;;;;;;17.17;10.18;;;21.50;66.10;;;;;;5139496;27;20076;-41
2021/05/02 07:55:35;;;;;;;19.85;9.80;;;21.60;66.10;;;;;;5140790;27;20062;-45
2021/05/02 07:58:01;;;;;;;19.33;9.52;;;21.60;65.20;;;;;;5140931;27;20051;-47
2021/05/02 08:00:26;;;;;;;18.90;9.65;;;21.60;64.80;;;;;;5140797;27;20039;-41
2021/05/02 08:02:52;;;;;;;19.58;9.57;;;21.60;64.00;;;;;;5140486;27;20319;-46
2021/05/02 08:05:18;;;;;;;15.40;8.98;;;21.60;64.20;;;;;;5140920;27;20027;-41
2021/05/02 08:07:45;;;;;;;19.73;9.95;;;21.60;63.10;;;;;;5140906;27;20055;-42
2021/05/02 08:10:11;;;;;;;20.75;9.75;;;21.50;63.20;;;;;;5140636;27;20035;-42
2021/05/02 08:12:37;;;;;;;16.85;9.77;;;21.50;63.40;;;;;;5140256;27;20031;-42
2021/05/02 08:15:04;;;;;;;20.05;10.30;;;21.50;63.30;;;;;;5140527;27;20042;-42
2021/05/02 08:17:30;;;;;;;16.08;9.38;;;21.40;63.40;;;;;;5140031;27;20135;-41
2021/05/02 08:19:55;;;;;;;18.40;11.45;;;21.40;63.60;;;;;;5140375;27;20035;-44
2021/05/02 08:22:21;;;;;;;21.05;11.02;;;21.40;63.70;;;;;;5140501;27;20047;-45
2021/05/02 08:24:47;;;;;;;21.02;10.57;;;21.40;63.80;;;;;;5140280;27;20054;-44
2021/05/02 08:27:13;;;;;;;24.35;10.48;;;21.40;64.40;;;;;;5140327;27;20106;-45
2021/05/02 08:29:38;;;;;;;30.10;11.25;;;21.40;64.70;;;;;;5139998;27;20374;-44
2021/05/02 08:32:05;;;;;;;23.20;10.70;;;21.40;64.80;;;;;;5139962;27;20031;-46
2021/05/02 08:34:30;;;;;;;21.13;10.60;;;21.40;64.30;;;;;;5140012;27;20041;-45
2021/05/02 08:36:56;;;;;;;18.13;10.80;;;21.40;63.90;;;;;;5139723;27;20059;-45
2021/05/02 08:39:22;;;;;;;14.32;9.38;;;21.40;64.20;;;;;;5140248;27;20457;-46
2021/05/02 08:41:48;;;;;;;21.73;11.73;;;21.40;64.60;;;;;;5140242;27;20054;-42
2021/05/02 08:44:17;;;;;;;21.25;11.35;;;21.50;64.80;;;;;;5139658;27;20078;-42
2021/05/02 08:46:43;;;;;;;20.50;10.45;;;21.50;64.70;;;;;;5139930;27;20039;-42
2021/05/02 08:49:09;;;;;;;26.15;12.00;;;21.50;64.70;;;;;;5139477;27;20270;-45
2021/05/02 08:51:35;;;;;;;17.45;9.73;;;21.50;64.70;;;;;;5140045;27;20042;-42
2021/05/02 08:54:00;;;;;;;23.30;10.48;;;21.40;64.10;;;;;;5139657;27;20034;-45
2021/05/02 08:56:26;;;;;;;24.10;10.10;;;21.40;64.20;;;;;;5139680;27;20123;-42
2021/05/02 08:58:52;;;;;;;22.42;9.75;;;21.40;63.70;;;;;;5139366;27;20026;-43
2021/05/02 09:01:31;;;;;;;20.88;11.13;;;21.30;63.90;;;;;;5139478;27;20027;-42
2021/05/02 09:04:01;;;;;;;24.52;12.00;;;21.30;64.20;;;;;;5138424;27;20031;-46
2021/05/02 09:06:28;;;;;;;;;;;21.20;64.70;;;;;;5140198;27;20035;-42
2021/05/02 09:09:02;;;;;;;21.35;11.85;;;21.10;65.20;;;;;;5139426;27;19911;-42
2021/05/02 09:11:36;;;;;;;20.55;11.20;;;21.10;66.50;;;;;;5139458;27;20031;-42
2021/05/02 09:14:08;;;;;;;25.65;12.57;;;21.00;67.00;;;;;;5139213;27;20079;-45
2021/05/02 09:16:48;;;;;;;24.02;11.38;;;21.00;67.00;;;;;;5138915;27;20031;-46
2021/05/02 09:19:14;;;;;;;23.55;11.45;;;21.00;65.90;;;;;;5139043;27;20517;-46
2021/05/02 09:21:41;;;;;;;24.73;10.45;;;20.90;65.70;;;;;;5138917;27;20035;-49
2021/05/02 09:24:27;;;;;;;24.25;11.50;;;20.90;65.50;;;;;;5138662;27;20023;-47
2021/05/02 09:27:23;;;;;;;27.00;10.77;;;21.00;66.10;;;;;;5139468;27;20035;-42
2021/05/02 09:29:49;;;;;;;25.95;11.73;;;21.00;66.60;;;;;;5138175;27;20128;-42
2021/05/02 09:32:15;;;;;;;22.83;10.90;;;21.00;66.60;;;;;;5138552;27;20058;-49
2021/05/02 09:34:52;;;;;;;24.52;12.30;;;21.00;66.30;;;;;;5138954;27;20132;-46
2021/05/02 09:37:18;;;;;;;30.17;12.38;;;21.00;66.10;;;;;;5138740;27;20019;-46
2021/05/02 09:40:03;;;;;;;26.02;11.73;;;21.00;66.40;;;;;;5139010;27;20056;-42
2021/05/02 09:42:34;;;;;;;25.75;11.50;;;21.00;66.40;;;;;;5138854;27;20019;-48
2021/05/02 09:45:02;;;;;;;23.85;11.60;;;21.00;66.60;;;;;;5138750;27;20035;-42
2021/05/02 09:47:31;;;;;;;28.20;15.43;;;21.00;66.40;;;;;;5138582;27;20030;-46
2021/05/02 09:50:15;;;;;;;24.35;12.20;;;20.90;66.40;;;;;;5138496;27;20310;-42
2021/05/02 09:52:55;;;;;;;23.20;12.68;;;20.90;67.30;;;;;;5138708;27;20027;-45
2021/05/02 09:55:22;;;;;;;26.58;14.18;;;20.80;68.10;;;;;;5138225;27;20031;-46
2021/05/02 09:58:10;;;;;;;29.85;15.93;;;20.70;68.70;;;;;;5138384;27;20034;-42
2021/05/02 10:00:49;;;;;;;26.33;16.52;;;20.60;70.20;;;;;;5138698;27;20058;-42
2021/05/02 10:03:17;;;;;;;26.92;16.25;;;20.50;71.10;;;;;;5119746;27;20019;-42
2021/05/02 10:06:01;;;;;;;33.20;16.73;;;20.30;72.10;;;;;;5138529;27;20302;-44
2021/05/02 10:08:32;;;;;;;27.15;15.82;;;20.20;72.20;;;;;;5138294;27;20100;-46
2021/05/02 10:11:01;;;;;;;34.25;16.55;;;20.10;72.80;;;;;;5138293;27;20037;-46
2021/05/02 10:13:27;;;;;;;38.20;18.77;;;20.00;72.90;;;;;;5138227;27;20314;-47
2021/05/02 10:15:53;;;;;;;22.45;14.43;;;19.90;73.90;;;;;;5136865;27;20039;-46
2021/05/02 10:18:19;;;;;;;30.67;15.55;;;19.90;73.30;;;;;;5137924;27;20096;-42
2021/05/02 10:20:46;;;;;;;28.80;18.48;;;19.70;74.00;;;;;;5137979;27;20419;-42
2021/05/02 10:23:13;;;;;;;30.27;18.75;;;19.70;73.80;;;;;;5138128;27;20035;-45
2021/05/02 10:25:41;;;;;;;27.35;14.65;;;19.60;73.80;;;;;;5138210;27;20098;-46
2021/05/02 10:28:07;;;;;;;24.33;17.40;;;19.60;74.10;;;;;;5137731;27;20026;-42
2021/05/02 10:30:41;;;;;;;23.27;15.77;;;19.50;74.50;;;;;;5137950;27;20019;-46
2021/05/02 10:33:13;;;;;;;22.80;14.40;;;19.40;74.50;;;;;;5138007;27;20053;-46
2021/05/02 10:35:47;;;;;;;30.75;15.23;;;19.40;74.60;;;;;;5137294;27;20055;-41
2021/05/02 10:38:18;;;;;;;23.58;16.13;;;19.30;74.30;;;;;;5137505;27;20023;-42
2021/05/02 10:40:45;;;;;;;26.30;15.80;;;19.30;74.90;;;;;;5138168;27;20035;-43
2021/05/02 10:43:30;;;;;;;23.90;13.13;;;19.20;75.10;;;;;;5137734;27;20353;-42
2021/05/02 10:45:56;;;;;;;25.63;12.48;;;19.20;74.40;;;;;;5137761;27;20063;-48
2021/05/02 10:48:22;;;;;;;19.90;13.55;;;19.20;74.70;;;;;;5137455;27;20030;-41
2021/05/02 10:50:49;;;;;;;25.63;15.20;;;19.10;75.00;;;;;;5137918;27;20031;-44
2021/05/02 10:53:17;;;;;;;28.65;14.90;;;19.00;75.40;;;;;;5137410;27;20039;-41
2021/05/02 10:55:55;;;;;;;18.58;12.25;;;19.00;76.00;;;;;;5137202;27;20059;-43
2021/05/02 10:58:22;;;;;;;23.10;13.55;;;18.90;75.50;;;;;;5137294;27;20023;-39
2021/05/02 11:01:03;;;;;;;20.65;12.32;;;18.90;75.60;;;;;;5137276;27;20157;-42
2021/05/02 11:03:40;;;;;;;38.58;24.73;;;18.80;76.10;;;;;;5137254;27;20106;-43
2021/05/02 11:06:13;;;;;;;27.08;16.90;;;18.80;76.80;;;;;;5136914;27;20050;-44
2021/05/02 11:08:50;;;;;;;26.10;15.23;;;18.80;77.70;;;;;;5137178;27;20023;-42
2021/05/02 11:11:31;;;;;;;29.88;15.70;;;18.80;78.00;;;;;;5137359;27;20027;-43
2021/05/02 11:16:46;;;;;;;25.33;15.40;;;18.70;77.50;;;;;;5137293;27;20039;-39
2021/05/02 11:19:22;;;;;;;21.38;14.95;;;18.70;77.20;;;;;;5136909;27;20054;-39
2021/05/02 11:21:52;;;;;;;21.42;14.73;;;18.60;78.00;;;;;;5137286;27;20034;-39
2021/05/02 11:24:23;;;;;;;23.08;15.55;;;18.60;77.80;;;;;;5137057;27;20023;-40
2021/05/02 11:27:04;;;;;;;27.13;14.82;;;18.50;78.10;;;;;;5136649;27;20027;-44
2021/05/02 11:32:32;;;;;;;31.20;21.50;;;18.40;78.40;;;;;;5123168;27;20047;-40
2021/05/02 11:35:05;;;;;;;24.40;15.98;;;18.40;79.30;;;;;;5136640;27;20088;-40
2021/05/02 11:38:05;;;;;;;28.10;22.17;;;18.30;79.10;;;;;;5136651;27;20040;-40
2021/05/02 11:40:31;;;;;;;23.92;16.58;;;18.30;80.20;;;;;;5136705;27;20067;-46
2021/05/02 11:43:16;;;;;;;24.10;17.38;;;18.30;79.70;;;;;;5136728;27;20059;-39
2021/05/02 11:45:43;;;;;;;29.88;19.92;;;18.20;79.70;;;;;;5136614;28;20508;-43
2021/05/02 11:48:15;;;;;;;21.75;16.70;;;18.20;80.30;;;;;;5136629;27;20303;-44
2021/05/02 11:50:43;;;;;;;31.20;23.95;;;18.10;80.10;;;;;;5136784;28;20019;-43
2021/05/02 11:53:09;;;;;;;27.92;22.25;;;18.10;80.70;;;;;;5136267;27;20323;-40
2021/05/02 11:55:40;;;;;;;25.95;20.67;;;18.10;81.00;;;;;;5136343;28;20050;-40
2021/05/02 11:58:16;;;;;;;25.40;17.80;;;18.00;81.00;;;;;;5136550;27;20035;-44
2021/05/02 12:00:49;;;;;;;24.40;18.92;;;18.00;81.20;;;;;;5136521;28;20019;-40
2021/05/02 12:03:36;;;;;;;31.75;18.92;;;18.00;81.60;;;;;;5136250;27;20418;-40
2021/05/02 12:06:03;;;;;;;46.60;22.33;;;18.00;82.10;;;;;;5136947;28;20033;-40
2021/05/02 12:08:30;;;;;;;49.25;23.38;;;18.00;82.30;;;;;;5136459;27;20371;-44
2021/05/02 12:10:58;;;;;;;51.78;29.30;;;17.90;82.50;;;;;;5136685;28;20398;-43
2021/05/02 12:13:43;;;;;;;54.33;29.40;;;17.90;82.90;;;;;;5136319;27;20036;-40
2021/05/02 12:16:16;;;;;;;77.75;46.67;;;18.00;83.50;;;;;;5136614;28;20053;-40
2021/05/02 12:18:56;;;;;;;54.40;32.85;;;18.00;83.50;;;;;;5136603;27;20376;-40
2021/05/02 12:21:25;;;;;;;50.92;32.97;;;18.00;83.90;;;;;;5136892;28;20020;-45
2021/05/02 12:23:52;;;;;;;37.65;23.52;;;18.00;83.70;;;;;;5136520;27;20107;-44
2021/05/02 12:26:18;;;;;;;34.88;25.70;;;18.10;83.60;;;;;;5136324;28;20479;-40
2021/05/02 12:28:45;;;;;;;32.00;20.42;;;18.10;83.40;;;;;;5136747;27;20039;-40
2021/05/02 12:31:13;;;;;;;29.17;20.75;;;18.10;83.20;;;;;;5136167;28;20023;-44
2021/05/02 12:33:40;;;;;;;50.22;36.67;;;18.10;83.00;;;;;;5136189;27;20106;-43
2021/05/02 12:36:12;;;;;;;50.05;42.80;;;18.10;83.20;;;;;;5136004;28;20092;-44
2021/05/02 12:38:40;;;;;;;34.50;27.70;;;18.10;83.10;;;;;;5136331;27;20027;-46
2021/05/02 12:41:05;;;;;;;33.35;25.55;;;18.10;83.00;;;;;;5140534;27;20042;-43
2021/05/02 12:43:32;;;;;;;30.20;22.38;;;18.10;83.10;;;;;;5140306;27;20303;-49
2021/05/02 12:45:59;;;;;;;29.77;21.42;;;18.10;83.20;;;;;;5121928;27;20430;-48